Flight Track Log - Related Links

Times and Time Zones

All times are in EDT time to prevent confusion due to time zone crossing. See the SWA1130 flight status page for this flight to view local times or setup timezone preferences in your user account.

Time Position Orientation Groundspeed Altitude Reporting Facility
EDT Latitude Longitude Course Direction KTS MPH feet Rate Location/Type
Tue 11:13:32 AM 33.6475 -84.4756 283° West 443 510 2,800  Level Atlanta Center
Tue 11:14:32 AM 33.6617 -84.5481 283° West 346 398 5,600 3,122 Climbing Atlanta Center
Tue 11:15:35 AM 33.6833 -84.6500 284° West 276 318 9,200 2,146 Climbing Atlanta TRACON
Tue 11:16:35 AM 33.7000 -84.7500 281° West 317 365 10,000 1,593 Climbing Atlanta TRACON
Tue 11:18:32 AM 33.6758 -84.9775 263° West 372 428 13,900 1,356 Climbing Atlanta Center
Tue 11:19:32 AM 33.6625 -85.1019 263° West 371 427 14,000 700 Climbing Atlanta Center
Tue 11:20:32 AM 33.6508 -85.2242 263° West 371 427 15,300 1,950 Climbing Atlanta Center
Tue 11:21:32 AM 33.6517 -85.3464 271° West 371 427 17,900 2,300 Climbing Atlanta Center
Tue 11:22:32 AM 33.6522 -85.4786 270° West 379 436 19,900 1,800 Climbing Atlanta Center
Tue 11:23:32 AM 33.6550 -85.5961 272° West 390 449 21,500 1,800 Climbing Atlanta Center
Tue 11:24:32 AM 33.6594 -85.7383 272° West 415 478 23,500 1,950 Climbing Atlanta Center
Tue 11:25:32 AM 33.6592 -85.8906 270° West 423 487 25,400 1,800 Climbing Atlanta Center
Tue 11:26:32 AM 33.6611 -86.0406 271° West 428 493 27,100 1,750 Climbing Atlanta Center
Tue 11:27:32 AM 33.6628 -86.1903 271° West 441 507 28,900 1,700 Climbing Atlanta Center
Tue 11:28:32 AM 33.6642 -86.3425 271° West 446 513 30,500 1,550 Climbing Atlanta Center
Tue 11:29:32 AM 33.6675 -86.4947 272° West 456 525 32,000 1,300 Climbing Atlanta Center
Tue 11:30:32 AM 33.6664 -86.6444 270° West 456 525 33,100 1,000 Climbing Atlanta Center
Tue 11:31:32 AM 33.6675 -86.7969 271° West 456 525 34,000 450 Climbing Atlanta Center
Tue 11:32:32 AM 33.6806 -86.9469 276° West 456 525 34,000 450 Level Atlanta Center
Tue 11:33:32 AM 33.7083 -87.0903 283° West 456 525 34,900 500 Climbing Atlanta Center
Tue 11:34:32 AM 33.7403 -87.2389 285° West 456 525 35,000 346 Climbing Atlanta Center
Tue 11:36:08 AM 33.7928 -87.4778 285° West 462 532 35,800 731 Climbing Memphis Center
Tue 11:37:08 AM 33.8211 -87.6244 283° West 462 532 36,900 1,100 Climbing Memphis Center
Tue 11:38:08 AM 33.8536 -87.7683 285° West 457 526 38,000 550 Climbing Memphis Center
Tue 11:39:08 AM 33.8836 -87.9175 284° West 452 520 38,000  Level Memphis Center
Tue 11:40:08 AM 33.9136 -88.0619 284° West 452 520 38,000  Level Memphis Center
Tue 11:41:08 AM 33.9286 -88.2042 277° West 452 520 38,000  Level Memphis Center
Tue 11:42:08 AM 33.9539 -88.3489 282° West 458 527 38,000  Level Memphis Center
Tue 11:43:08 AM 33.9772 -88.4961 281° West 458 527 38,000  Level Memphis Center
Tue 11:44:08 AM 34.0000 -88.6433 281° West 458 527 38,000  Level Memphis Center
Tue 11:45:08 AM 34.0231 -88.7908 281° West 453 521 38,000  Level Memphis Center
Tue 11:46:08 AM 34.0475 -88.9333 282° West 439 505 38,000  Level Memphis Center
Tue 11:47:08 AM 34.0681 -89.0933 279° West 444 511 38,000  Level Memphis Center
Tue 11:48:08 AM 34.0986 -89.2358 285° West 449 517 38,000  Level Memphis Center
Tue 11:49:08 AM 34.1750 -89.3581 307° West 437 503 38,000  Level Memphis Center
Tue 11:50:08 AM 34.2572 -89.4725 311° West 442 509 38,000  Level Memphis Center
Tue 11:51:08 AM 34.3331 -89.5925 307° West 452 520 38,000  Level Memphis Center
Tue 11:52:08 AM 34.3589 -89.7433 282° West 448 516 38,000  Level Memphis Center
Tue 11:53:08 AM 34.3783 -89.8967 279° West 457 526 38,000  Level Memphis Center
Tue 11:54:08 AM 34.3978 -90.0325 280° West 457 526 38,000  Level Memphis Center
Tue 11:55:08 AM 34.4189 -90.1858 280° West 462 532 38,000  Level Memphis Center
Tue 11:56:08 AM 34.4397 -90.3369 280° West 462 532 38,000  Level Memphis Center
Tue 11:57:08 AM 34.4606 -90.4856 280° West 462 532 38,000  Level Memphis Center
Tue 11:58:08 AM 34.4833 -90.6519 279° West 462 532 38,000  Level Memphis Center
Tue 11:59:08 AM 34.5017 -90.8033 278° West 462 532 38,000  Level Memphis Center
Tue 12:00:08 PM 34.5219 -90.9572 279° West 457 526 38,000  Level Memphis Center
Tue 12:01:08 PM 34.5419 -91.1086 279° West 457 526 38,000  Level Memphis Center
Tue 12:02:08 PM 34.5617 -91.2625 279° West 464 534 38,000  Level Memphis Center
Tue 12:03:08 PM 34.5794 -91.4167 278° West 464 534 38,000  Level Memphis Center
Tue 12:04:08 PM 34.5989 -91.5683 279° West 464 534 38,000  Level Memphis Center
Tue 12:05:08 PM 34.6161 -91.7200 278° West 464 534 38,000  Level Memphis Center
Tue 12:06:08 PM 34.6372 -91.8667 280° West 464 534 38,000  Level Memphis Center
Tue 12:07:08 PM 34.6542 -92.0208 278° West 464 534 38,000  Level Memphis Center
Tue 12:08:08 PM 34.6728 -92.1753 278° West 464 534 38,000  Level Memphis Center
Tue 12:09:08 PM 34.6914 -92.3272 279° West 464 534 38,000  Level Memphis Center
Tue 12:10:08 PM 34.7056 -92.4767 277° West 464 534 38,000  Level Memphis Center
Tue 12:11:08 PM 34.7258 -92.6311 279° West 464 534 38,000  Level Memphis Center
Tue 12:12:08 PM 34.7419 -92.7833 277° West 464 534 38,000  Level Memphis Center
Tue 12:13:08 PM 34.7575 -92.9331 277° West 464 534 38,000  Level Memphis Center
Tue 12:14:08 PM 34.7753 -93.0853 278° West 464 534 38,000  Level Memphis Center
Tue 12:15:08 PM 34.7906 -93.2400 277° West 464 534 38,000  Level Memphis Center
Tue 12:16:08 PM 34.8061 -93.3769 278° West 464 534 38,000  Level Memphis Center
Tue 12:17:08 PM 34.8231 -93.5294 278° West 464 534 38,000  Level Memphis Center
Tue 12:18:08 PM 34.8400 -93.6819 278° West 464 534 38,000  Level Memphis Center
Tue 12:19:08 PM 34.8547 -93.8342 277° West 464 534 38,000  Level Memphis Center
Tue 12:20:08 PM 34.8711 -93.9867 278° West 464 534 38,000  Level Memphis Center
Tue 12:21:08 PM 34.8875 -94.1369 278° West 459 528 38,000  Level Memphis Center
Tue 12:22:08 PM 34.8997 -94.2867 276° West 459 528 38,000  Level Memphis Center
Tue 12:23:08 PM 34.9178 -94.4369 278° West 459 528 38,000  Level Memphis Center
Tue 12:23:34 PM 34.9244 -94.5192 276° West 458 527 38,000  Level Fort Worth Center
Tue 12:24:34 PM 34.9381 -94.6603 277° West 448 516 38,000  Level Fort Worth Center
Tue 12:25:34 PM 34.9558 -94.8067 278° West 448 516 38,000  Level Fort Worth Center
Tue 12:26:34 PM 34.9692 -94.9583 276° West 448 516 38,000  Level Fort Worth Center
Tue 12:27:34 PM 34.9803 -95.1050 275° West 443 510 38,000  Level Fort Worth Center
Tue 12:29:34 PM 35.0106 -95.4008 277° West 443 510 38,000  Level Fort Worth Center
Tue 12:30:34 PM 35.0233 -95.5475 276° West 443 510 38,000  Level Fort Worth Center
Tue 12:31:34 PM 35.0358 -95.6944 276° West 443 510 38,000  Level Fort Worth Center
Tue 12:32:34 PM 35.0503 -95.8436 277° West 443 510 38,000  Level Fort Worth Center
Tue 12:33:34 PM 35.0606 -96.0033 275° West 443 510 38,000  Level Fort Worth Center
Tue 12:34:34 PM 35.0725 -96.1528 276° West 443 510 38,000 -300 Level Fort Worth Center
Tue 12:35:34 PM 35.0844 -96.3022 276° West 443 510 37,400 -800 Descending Fort Worth Center
Tue 12:36:34 PM 35.0981 -96.4569 276° West 443 510 36,400 -700 Descending Fort Worth Center
Tue 12:37:34 PM 35.1094 -96.6064 275° West 443 510 36,000 -200 Descending Fort Worth Center
Tue 12:38:34 PM 35.1231 -96.7611 276° West 449 517 36,000  Level Fort Worth Center
Tue 12:39:34 PM 35.1342 -96.9158 275° West 455 524 36,000  Level Fort Worth Center
Tue 12:40:34 PM 35.1450 -97.0708 275° West 460 529 36,000  Level Fort Worth Center
Tue 12:41:34 PM 35.1558 -97.2256 275° West 460 529 36,000  Level Fort Worth Center
Tue 12:42:34 PM 35.1664 -97.3831 275° West 460 529 36,000  Level Fort Worth Center
Tue 12:43:34 PM 35.1789 -97.5406 276° West 460 529 36,000  Level Fort Worth Center
Tue 12:44:34 PM 35.1911 -97.6981 275° West 466 536 36,000  Level Fort Worth Center
Tue 12:45:34 PM 35.2031 -97.8506 276° West 466 536 36,000  Level Fort Worth Center
Tue 12:46:34 PM 35.2150 -98.0081 275° West 460 529 36,000  Level Fort Worth Center
Tue 12:47:34 PM 35.2267 -98.1633 275° West 460 529 36,000  Level Fort Worth Center
Tue 12:48:34 PM 35.2361 -98.3183 274° West 460 529 36,000  Level Fort Worth Center
Tue 12:49:34 PM 35.2494 -98.4761 276° West 460 529 36,000  Level Fort Worth Center
Tue 12:50:34 PM 35.2586 -98.6236 274° West 455 524 36,000  Level Fort Worth Center
Tue 12:51:34 PM 35.2672 -98.7817 274° West 461 531 36,000  Level Fort Worth Center
Tue 12:52:34 PM 35.2758 -98.9367 274° West 466 536 36,000  Level Fort Worth Center
Tue 12:54:45 PM 35.2961 -99.2564 275° West 467 537 36,000  Level Albuquerque Center
Tue 12:55:47 PM 35.3061 -99.4161 274° West 468 539 36,000  Level Albuquerque Center
Tue 12:56:49 PM 35.3172 -99.6083 274° West 468 539 36,000  Level Albuquerque Center
Tue 12:57:51 PM 35.3264 -99.7681 274° West 468 539 36,000  Level Albuquerque Center
Tue 12:58:53 PM 35.3342 -99.9281 273° West 468 539 36,000  Level Albuquerque Center
Tue 12:59:55 PM 35.3428 -100.0869 274° West 467 537 36,000  Level Albuquerque Center
Tue 01:00:57 PM 35.3514 -100.2461 274° West 466 536 36,000  Level Albuquerque Center
Tue 01:01:59 PM 35.3589 -100.4056 273° West 466 536 36,000  Level Albuquerque Center
Tue 01:03:01 PM 35.3672 -100.5647 274° West 466 536 36,000  Level Albuquerque Center
Tue 01:04:03 PM 35.3747 -100.7331 273° West 469 540 36,000  Level Albuquerque Center
Tue 01:05:05 PM 35.3814 -100.8922 273° West 469 540 36,000  Level Albuquerque Center
Tue 01:06:07 PM 35.3900 -101.0856 273° West 474 545 36,000  Level Albuquerque Center
Tue 01:07:09 PM 35.3967 -101.2469 273° West 476 548 36,000  Level Albuquerque Center
Tue 01:08:11 PM 35.4050 -101.4067 274° West 479 551 36,000  Level Albuquerque Center
Tue 01:09:13 PM 35.4136 -101.5694 274° West 478 550 36,000  Level Albuquerque Center
Tue 01:10:15 PM 35.4189 -101.7392 272° West 481 554 36,000  Level Albuquerque Center
Tue 01:11:17 PM 35.4275 -101.9311 273° West 480 552 36,000  Level Albuquerque Center
Tue 01:12:19 PM 35.4283 -102.0836 270° West 482 555 36,000  Level Albuquerque Center
Tue 01:13:21 PM 35.4344 -102.2469 273° West 484 557 36,000  Level Albuquerque Center
Tue 01:14:23 PM 35.4397 -102.4106 272° West 483 556 36,000  Level Albuquerque Center
Tue 01:15:26 PM 35.4453 -102.6072 272° West 483 556 36,000  Level Albuquerque Center
Tue 01:16:28 PM 35.4508 -102.7606 273° West 485 558 36,000  Level Albuquerque Center
Tue 01:17:30 PM 35.4550 -102.9269 272° West 485 558 36,000  Level Albuquerque Center
Tue 01:18:32 PM 35.4608 -103.1211 272° West 485 558 36,000  Level Albuquerque Center
Tue 01:19:34 PM 35.4656 -103.2872 272° West 485 558 36,000  Level Albuquerque Center
Tue 01:20:36 PM 35.4694 -103.4536 272° West 485 558 36,000  Level Albuquerque Center
Tue 01:21:38 PM 35.4728 -103.6197 271° West 485 558 36,000  Level Albuquerque Center
Tue 01:22:40 PM 35.4769 -103.7856 272° West 485 558 36,000  Level Albuquerque Center
Tue 01:23:42 PM 35.4794 -103.9514 271° West 486 559 36,000  Level Albuquerque Center
Tue 01:24:44 PM 35.4833 -104.1439 271° West 486 559 36,000  Level Albuquerque Center
Tue 01:25:46 PM 35.4853 -104.3086 271° West 486 559 36,000  Level Albuquerque Center
Tue 01:26:48 PM 35.4878 -104.4728 271° West 484 557 36,000  Level Albuquerque Center
Tue 01:27:50 PM 35.4908 -104.6378 271° West 484 557 36,000  Level Albuquerque Center
Tue 01:28:52 PM 35.4925 -104.8033 271° West 484 557 36,000  Level Albuquerque Center
Tue 01:29:54 PM 35.4942 -104.9975 271° West 485 558 36,000  Level Albuquerque Center
Tue 01:30:56 PM 35.4961 -105.1636 271° West 484 557 36,000  Level Albuquerque Center
Tue 01:31:58 PM 35.4967 -105.3300 270° West 484 557 36,000  Level Albuquerque Center
Tue 01:33:00 PM 35.4986 -105.4956 271° West 483 556 36,000  Level Albuquerque Center
Tue 01:34:02 PM 35.5000 -105.6606 271° West 481 554 36,000  Level Albuquerque Center
Tue 01:35:04 PM 35.5003 -105.8267 270° West 482 555 36,000  Level Albuquerque Center
Tue 01:36:06 PM 35.5000 -105.9900 270° West 481 554 36,000  Level Albuquerque Center
Tue 01:37:08 PM 35.5022 -106.1539 271° West 483 556 36,000  Level Albuquerque Center
Tue 01:38:10 PM 35.5033 -106.3522 270° West 486 559 36,000  Level Albuquerque Center
Tue 01:39:13 PM 35.5033 -106.5150 270° West 482 555 36,000  Level Albuquerque Center
Tue 01:40:15 PM 35.5031 -106.6764 270° West 479 551 36,000  Level Albuquerque Center
Tue 01:41:17 PM 35.5028 -106.8400 270° West 483 556 36,000  Level Albuquerque Center
Tue 01:42:19 PM 35.5025 -107.0008 270° West 479 551 36,000  Level Albuquerque Center
Tue 01:43:21 PM 35.5003 -107.1950 269° West 478 550 36,000  Level Albuquerque Center
Tue 01:44:23 PM 35.4986 -107.3625 269° West 476 548 36,000  Level Albuquerque Center
Tue 01:45:25 PM 35.4969 -107.5175 269° West 475 547 36,000  Level Albuquerque Center
Tue 01:46:27 PM 35.4947 -107.6992 269° West 476 548 36,000  Level Albuquerque Center
Tue 01:47:29 PM 35.4931 -107.8547 269° West 476 548 36,000  Level Albuquerque Center
Tue 01:48:31 PM 35.4906 -108.0369 269° West 477 549 36,000  Level Albuquerque Center
Tue 01:49:33 PM 35.4886 -108.1931 269° West 478 550 36,000  Level Albuquerque Center
Tue 01:50:35 PM 35.4858 -108.3506 269° West 479 551 36,000  Level Albuquerque Center
Tue 01:51:37 PM 35.4828 -108.5344 269° West 479 551 36,000  Level Albuquerque Center
Tue 01:52:39 PM 35.4806 -108.6908 269° West 478 550 36,000  Level Albuquerque Center
Tue 01:53:41 PM 35.4778 -108.8736 269° West 477 549 36,000  Level Albuquerque Center
Tue 01:54:43 PM 35.4844 -109.0283 273° West 473 544 36,000  Level Albuquerque Center
Tue 01:55:45 PM 35.4939 -109.2108 274° West 476 548 36,000  Level Albuquerque Center
Tue 01:56:47 PM 35.5028 -109.3656 274° West 475 547 36,000  Level Albuquerque Center
Tue 01:57:49 PM 35.5089 -109.5206 273° West 474 545 36,000  Level Albuquerque Center
Tue 01:58:51 PM 35.5158 -109.6992 273° West 476 548 36,000  Level Albuquerque Center
Tue 01:59:53 PM 35.5222 -109.8525 273° West 470 541 36,000  Level Albuquerque Center
Tue 02:00:55 PM 35.5297 -110.0311 273° West 470 541 36,000  Level Albuquerque Center
Tue 02:01:56 PM 35.5339 -110.1844 272° West 469 540 36,000  Level Albuquerque Center
Tue 02:02:58 PM 35.5414 -110.3622 273° West 469 540 36,000  Level Albuquerque Center
Tue 02:04:00 PM 35.5475 -110.5172 273° West 471 542 36,000  Level Albuquerque Center
Tue 02:05:02 PM 35.5519 -110.6892 272° West 459 528 36,000  Level Albuquerque Center
Tue 02:06:04 PM 35.5589 -110.8375 273° West 455 524 36,000  Level Albuquerque Center
Tue 02:07:06 PM 35.5636 -110.9844 272° West 452 520 36,000 -726 Level Albuquerque Center
Tue 02:08:08 PM 35.5692 -111.1542 272° West 448 516 34,500 -1,694 Descending Albuquerque Center
Tue 02:09:10 PM 35.5744 -111.2994 273° West 446 513 32,500 -2,032 Descending Albuquerque Center
Tue 02:10:12 PM 35.5792 -111.4606 272° West 448 516 30,300 -1,210 Descending Albuquerque Center
Tue 02:11:14 PM 35.5850 -111.6047 273° West 436 502 30,000 -146 Descending Albuquerque Center
Tue 02:12:15 PM 35.5869 -111.7469 271° West 422 486 30,000  Level Albuquerque Center
Tue 02:13:17 PM 35.5911 -111.8906 272° West 423 487 30,000  Level Albuquerque Center
Tue 02:14:19 PM 35.5964 -112.0619 272° West 423 487 30,000  Level Albuquerque Center
Tue 02:15:21 PM 35.5986 -112.2050 271° West 422 486 30,000  Level Albuquerque Center
Tue 02:16:23 PM 35.6025 -112.3486 272° West 423 487 30,000  Level Albuquerque Center
Tue 02:17:24 PM 35.6067 -112.4925 272° West 424 488 30,000  Level Albuquerque Center
Tue 02:18:26 PM 35.6103 -112.6364 272° West 426 490 30,000  Level Albuquerque Center
Tue 02:19:28 PM 35.6133 -112.8053 271° West 423 487 30,000  Level Albuquerque Center
Tue 02:20:30 PM 35.6153 -112.9442 271° West 417 480 30,000  Level Albuquerque Center
Tue 02:21:31 PM 35.6172 -113.0822 271° West 414 476 30,000 -390 Level Albuquerque Center
Tue 02:22:33 PM 35.6200 -113.2194 271° West 410 472 29,200 -1,565 Descending Albuquerque Center
Tue 02:23:49 PM 35.6231 -113.4131 271° West 410 472 26,400 -2,043 Descending Los Angeles Center
Tue 02:24:51 PM 35.6253 -113.5481 271° West 403 464 24,500 -1,872 Descending Los Angeles Center
Tue 02:25:54 PM 35.6431 -113.6772 280° West 392 451 22,500 -1,872 Descending Los Angeles Center
Tue 02:26:56 PM 35.6622 -113.8039 281° West 382 440 20,600 -1,694 Descending Los Angeles Center
Tue 02:27:58 PM 35.6819 -113.9506 279° West 368 423 19,000 -1,500 Descending Los Angeles Center
Tue 02:29:00 PM 35.6981 -114.0650 280° West 349 402 17,500 -1,563 Descending Los Angeles Center
Tue 02:29:57 PM 35.7100 -114.1719 278° West 335 386 15,900 -1,742 Descending Los Angeles Center
Tue 02:31:04 PM 35.7308 -114.3014 281° West 327 376 13,900 -1,714 Descending Los Angeles Center
Tue 02:31:28 PM 35.7392 -114.3400 285° West 325 374 13,300 -1,397 Descending Los Angeles Center
Tue 02:32:17 PM 35.7778 -114.4147 303° West 316 364 12,200 -1,380 Descending Los Angeles Center
Tue 02:33:08 PM 35.8286 -114.4675 320° Northwest 311 358 11,000 -1,368 Descending Los Angeles Center
Tue 02:34:11 PM 35.8936 -114.5350 320° Northwest 309 356 9,600 -1,296 Descending Los Angeles Center
Tue 02:35:13 PM 35.9550 -114.6003 319° Northwest 297 342 8,300 -774 Descending Los Angeles Center
Tue 02:36:15 PM 36.0147 -114.6631 320° Northwest 286 329 8,000 -145 Descending Los Angeles Center
Tue 02:37:17 PM 36.0761 -114.7319 318° Northwest 260 299 8,000 -425 Level Los Angeles Center
Tue 02:38:22 PM 36.0731 -114.8178 268° West 229 264 7,100 -919 Descending Los Angeles Center
Tue 02:39:21 PM 36.0747 -114.8850 272° West 226 260 6,100 -1,190 Descending Los Angeles Center
Tue 02:40:23 PM 36.0739 -114.9608 269° West 222 255 4,700 -1,317 Descending Los Angeles Center
Tue 02:41:24 PM 36.0747 -115.0331 271° West 166 191 3,400 -984 Descending Los Angeles Center
Tue 02:42:25 PM 36.0725 -115.0817 267° West 146 168 2,700 -667 Descending Los Angeles Center
Tue 02:43:30 PM 36.0744 -115.1336 273° West 150 173 2,000 -646 Descending Los Angeles Center
Tue 02:45:00 PM 36.0667 -115.1500 270° West  Level FlightAware Approximate

Login

Don't have an account? Register now (free) for customized features, flight alerts, and more!